sensor_id;sensor_type;location;lat;lon;timestamp;temperature;humidity
37310;DHT22;23195;47.744;7.358;2024-03-06T07:00:53;6.20;99.90
37310;DHT22;23195;47.744;7.358;2024-03-06T07:03:22;6.10;99.90
37310;DHT22;23195;47.744;7.358;2024-03-06T07:05:58;6.10;99.90
37310;DHT22;23195;47.744;7.358;2024-03-06T07:08:25;5.30;99.90
37310;DHT22;23195;47.744;7.358;2024-03-06T07:10:51;6.10;99.90
37310;DHT22;23195;47.744;7.358;2024-03-06T07:13:20;5.90;99.90
37310;DHT22;23195;47.744;7.358;2024-03-06T07:15:58;6.20;99.90
37310;DHT22;23195;47.744;7.358;2024-03-06T07:18:26;6.20;99.90
37310;DHT22;23195;47.744;7.358;2024-03-06T07:21:03;6.20;99.90
37310;DHT22;23195;47.744;7.358;2024-03-06T07:23:28;6.20;99.90
37310;DHT22;23195;47.744;7.358;2024-03-06T07:25:54;6.30;99.90
37310;DHT22;23195;47.744;7.358;2024-03-06T07:28:30;6.30;99.90
37310;DHT22;23195;47.744;7.358;2024-03-06T07:30:56;6.30;99.90
37310;DHT22;23195;47.744;7.358;2024-03-06T07:33:27;6.40;99.90
37310;DHT22;23195;47.744;7.358;2024-03-06T07:35:56;6.40;99.90
37310;DHT22;23195;47.744;7.358;2024-03-06T07:38:22;6.40;99.90
37310;DHT22;23195;47.744;7.358;2024-03-06T07:40:48;6.40;99.90
37310;DHT22;23195;47.744;7.358;2024-03-06T07:43:14;5.10;99.90
37310;DHT22;23195;47.744;7.358;2024-03-06T07:45:43;6.50;99.90
37310;DHT22;23195;47.744;7.358;2024-03-06T07:48:09;6.60;99.90
37310;DHT22;23195;47.744;7.358;2024-03-06T07:50:35;6.70;99.90
37310;DHT22;23195;47.744;7.358;2024-03-06T07:53:01;6.80;99.90
37310;DHT22;23195;47.744;7.358;2024-03-06T07:55:27;6.90;99.90
37310;DHT22;23195;47.744;7.358;2024-03-06T07:57:53;6.90;99.90
37310;DHT22;23195;47.744;7.358;2024-03-06T08:00:19;6.90;99.90
37310;DHT22;23195;47.744;7.358;2024-03-06T08:02:46;6.90;99.90
37310;DHT22;23195;47.744;7.358;2024-03-06T08:05:16;6.90;99.90
37310;DHT22;23195;47.744;7.358;2024-03-06T08:07:45;6.80;99.90
37310;DHT22;23195;47.744;7.358;2024-03-06T08:10:12;7.00;99.90
37310;DHT22;23195;47.744;7.358;2024-03-06T08:12:42;7.00;99.90
37310;DHT22;23195;47.744;7.358;2024-03-06T08:15:10;7.00;99.90
37310;DHT22;23195;47.744;7.358;2024-03-06T08:17:44;7.20;99.90
37310;DHT22;23195;47.744;7.358;2024-03-06T08:20:12;7.30;99.90
37310;DHT22;23195;47.744;7.358;2024-03-06T08:22:42;7.40;99.90
37310;DHT22;23195;47.744;7.358;2024-03-06T08:25:11;7.50;99.90
37310;DHT22;23195;47.744;7.358;2024-03-06T08:27:41;7.70;99.90
37310;DHT22;23195;47.744;7.358;2024-03-06T08:30:08;7.70;99.90
37310;DHT22;23195;47.744;7.358;2024-03-06T08:32:35;7.70;99.90
37310;DHT22;23195;47.744;7.358;2024-03-06T08:35:03;7.70;99.90
37310;DHT22;23195;47.744;7.358;2024-03-06T08:37:34;7.80;99.90
37310;DHT22;23195;47.744;7.358;2024-03-06T08:40:00;7.90;99.90
37310;DHT22;23195;47.744;7.358;2024-03-06T08:42:33;8.00;99.90
37310;DHT22;23195;47.744;7.358;2024-03-06T08:44:59;7.80;99.90
37310;DHT22;23195;47.744;7.358;2024-03-06T08:47:37;8.00;99.90
37310;DHT22;23195;47.744;7.358;2024-03-06T08:50:05;8.00;99.90
37310;DHT22;23195;47.744;7.358;2024-03-06T08:52:33;8.10;99.90
37310;DHT22;23195;47.744;7.358;2024-03-06T08:55:00;8.30;99.90
37310;DHT22;23195;47.744;7.358;2024-03-06T08:57:28;8.40;99.90
37310;DHT22;23195;47.744;7.358;2024-03-06T08:59:57;8.50;99.90
37310;DHT22;23195;47.744;7.358;2024-03-06T09:02:23;8.60;99.90
37310;DHT22;23195;47.744;7.358;2024-03-06T09:04:49;8.90;99.90
37310;DHT22;23195;47.744;7.358;2024-03-06T09:07:20;8.90;99.90
37310;DHT22;23195;47.744;7.358;2024-03-06T09:09:49;8.90;99.90
37310;DHT22;23195;47.744;7.358;2024-03-06T09:12:17;9.00;99.90
37310;DHT22;23195;47.744;7.358;2024-03-06T09:14:43;8.50;99.90
37310;DHT22;23195;47.744;7.358;2024-03-06T09:17:10;9.30;99.90
37310;DHT22;23195;47.744;7.358;2024-03-06T09:19:40;9.30;99.90
37310;DHT22;23195;47.744;7.358;2024-03-06T09:22:06;8.30;99.90
37310;DHT22;23195;47.744;7.358;2024-03-06T09:24:35;9.60;99.90
37310;DHT22;23195;47.744;7.358;2024-03-06T09:27:03;9.70;99.90
37310;DHT22;23195;47.744;7.358;2024-03-06T09:29:29;9.70;99.90
37310;DHT22;23195;47.744;7.358;2024-03-06T09:31:55;9.70;99.90
37310;DHT22;23195;47.744;7.358;2024-03-06T09:34:20;9.90;99.90
37310;DHT22;23195;47.744;7.358;2024-03-06T09:36:48;9.80;99.90
37310;DHT22;23195;47.744;7.358;2024-03-06T09:39:16;9.90;99.90
37310;DHT22;23195;47.744;7.358;2024-03-06T09:41:44;9.80;99.90
37310;DHT22;23195;47.744;7.358;2024-03-06T09:44:13;9.90;99.90
37310;DHT22;23195;47.744;7.358;2024-03-06T09:46:46;10.50;99.90
37310;DHT22;23195;47.744;7.358;2024-03-06T09:49:15;10.10;99.90
37310;DHT22;23195;47.744;7.358;2024-03-06T09:51:53;9.50;99.90
37310;DHT22;23195;47.744;7.358;2024-03-06T09:54:24;10.00;99.90
37310;DHT22;23195;47.744;7.358;2024-03-06T09:56:54;10.20;99.90
37310;DHT22;23195;47.744;7.358;2024-03-06T09:59:22;10.10;99.90
37310;DHT22;23195;47.744;7.358;2024-03-06T10:09:03;10.30;99.90
37310;DHT22;23195;47.744;7.358;2024-03-06T10:11:40;10.40;99.90
37310;DHT22;23195;47.744;7.358;2024-03-06T10:14:26;10.90;99.90
37310;DHT22;23195;47.744;7.358;2024-03-06T10:16:55;11.00;99.90
37310;DHT22;23195;47.744;7.358;2024-03-06T10:19:25;11.20;99.90
37310;DHT22;23195;47.744;7.358;2024-03-06T10:21:53;11.60;99.90
37310;DHT22;23195;47.744;7.358;2024-03-06T10:24:29;11.80;99.90
37310;DHT22;23195;47.744;7.358;2024-03-06T10:26:58;11.10;99.90
37310;DHT22;23195;47.744;7.358;2024-03-06T10:29:26;11.70;99.90
37310;DHT22;23195;47.744;7.358;2024-03-06T10:31:57;11.80;99.90
37310;DHT22;23195;47.744;7.358;2024-03-06T10:34:29;11.70;99.90
37310;DHT22;23195;47.744;7.358;2024-03-06T10:36:57;11.50;99.90
37310;DHT22;23195;47.744;7.358;2024-03-06T10:39:23;11.30;99.90
37310;DHT22;23195;47.744;7.358;2024-03-06T10:41:57;11.10;99.90
37310;DHT22;23195;47.744;7.358;2024-03-06T10:44:24;10.90;99.90
37310;DHT22;23195;47.744;7.358;2024-03-06T10:47:23;10.60;99.90
37310;DHT22;23195;47.744;7.358;2024-03-06T10:49:50;10.40;99.90
37310;DHT22;23195;47.744;7.358;2024-03-06T10:52:16;10.10;99.90
37310;DHT22;23195;47.744;7.358;2024-03-06T10:54:43;10.00;99.90
37310;DHT22;23195;47.744;7.358;2024-03-06T10:57:11;9.90;99.90
37310;DHT22;23195;47.744;7.358;2024-03-06T10:59:40;9.80;99.90
37310;DHT22;23195;47.744;7.358;2024-03-06T11:02:08;9.60;99.90
37310;DHT22;23195;47.744;7.358;2024-03-06T11:04:35;9.50;99.90
37310;DHT22;23195;47.744;7.358;2024-03-06T11:07:10;9.30;99.90
37310;DHT22;23195;47.744;7.358;2024-03-06T11:09:37;9.30;99.90
37310;DHT22;23195;47.744;7.358;2024-03-06T11:12:04;9.30;99.90
37310;DHT22;23195;47.744;7.358;2024-03-06T11:14:37;9.20;99.90
37310;DHT22;23195;47.744;7.358;2024-03-06T11:17:12;9.10;99.90
37310;DHT22;23195;47.744;7.358;2024-03-06T11:28:23;8.90;99.90
37310;DHT22;23195;47.744;7.358;2024-03-06T11:31:02;9.00;99.90
37310;DHT22;23195;47.744;7.358;2024-03-06T11:33:37;9.00;99.90
37310;DHT22;23195;47.744;7.358;2024-03-06T11:39:02;9.00;99.90
37310;DHT22;23195;47.744;7.358;2024-03-06T11:44:14;8.90;99.90
37310;DHT22;23195;47.744;7.358;2024-03-06T11:46:59;8.90;99.90
37310;DHT22;23195;47.744;7.358;2024-03-06T11:49:27;8.90;99.90
37310;DHT22;23195;47.744;7.358;2024-03-06T11:52:04;8.80;99.90
37310;DHT22;23195;47.744;7.358;2024-03-06T11:54:32;8.80;99.90
37310;DHT22;23195;47.744;7.358;2024-03-06T11:57:00;8.50;99.90
37310;DHT22;23195;47.744;7.358;2024-03-06T11:59:30;8.30;99.90
37310;DHT22;23195;47.744;7.358;2024-03-06T12:02:06;8.80;99.90
37310;DHT22;23195;47.744;7.358;2024-03-06T12:04:33;9.00;99.90
37310;DHT22;23195;47.744;7.358;2024-03-06T12:07:02;9.10;99.90
37310;DHT22;23195;47.744;7.358;2024-03-06T12:09:34;9.30;99.90
37310;DHT22;23195;47.744;7.358;2024-03-06T12:12:00;9.50;99.90
37310;DHT22;23195;47.744;7.358;2024-03-06T12:14:26;9.90;99.90
37310;DHT22;23195;47.744;7.358;2024-03-06T12:17:02;10.10;99.90
37310;DHT22;23195;47.744;7.358;2024-03-06T12:19:34;10.30;99.90
37310;DHT22;23195;47.744;7.358;2024-03-06T12:22:02;10.80;99.90
37310;DHT22;23195;47.744;7.358;2024-03-06T12:24:29;10.30;99.90
37310;DHT22;23195;47.744;7.358;2024-03-06T12:27:13;10.40;99.90
37310;DHT22;23195;47.744;7.358;2024-03-06T12:29:52;10.20;99.90
37310;DHT22;23195;47.744;7.358;2024-03-06T12:32:36;10.60;99.90
37310;DHT22;23195;47.744;7.358;2024-03-06T12:35:02;10.80;99.90
37310;DHT22;23195;47.744;7.358;2024-03-06T12:37:38;10.90;99.90
37310;DHT22;23195;47.744;7.358;2024-03-06T12:40:08;11.10;99.90
37310;DHT22;23195;47.744;7.358;2024-03-06T12:42:38;11.20;99.90
37310;DHT22;23195;47.744;7.358;2024-03-06T12:45:05;11.40;99.90
37310;DHT22;23195;47.744;7.358;2024-03-06T12:47:32;11.50;99.90
37310;DHT22;23195;47.744;7.358;2024-03-06T12:49:58;11.50;99.90
37310;DHT22;23195;47.744;7.358;2024-03-06T12:52:24;11.60;99.90
37310;DHT22;23195;47.744;7.358;2024-03-06T12:54:50;11.60;99.90
37310;DHT22;23195;47.744;7.358;2024-03-06T12:57:16;11.50;99.90
37310;DHT22;23195;47.744;7.358;2024-03-06T12:59:45;11.50;99.90
37310;DHT22;23195;47.744;7.358;2024-03-06T13:02:11;11.50;99.90
37310;DHT22;23195;47.744;7.358;2024-03-06T13:04:39;11.70;99.90
37310;DHT22;23195;47.744;7.358;2024-03-06T13:07:05;11.60;99.90
37310;DHT22;23195;47.744;7.358;2024-03-06T13:09:31;11.50;99.90
37310;DHT22;23195;47.744;7.358;2024-03-06T13:11:58;11.40;99.90
37310;DHT22;23195;47.744;7.358;2024-03-06T13:14:24;11.70;99.90
37310;DHT22;23195;47.744;7.358;2024-03-06T13:16:49;11.30;99.90
37310;DHT22;23195;47.744;7.358;2024-03-06T13:19:15;11.30;99.90
37310;DHT22;23195;47.744;7.358;2024-03-06T13:21:41;11.00;99.90
37310;DHT22;23195;47.744;7.358;2024-03-06T13:24:07;10.80;99.90
37310;DHT22;23195;47.744;7.358;2024-03-06T13:26:33;11.00;99.90
37310;DHT22;23195;47.744;7.358;2024-03-06T13:28:58;10.70;99.90
37310;DHT22;23195;47.744;7.358;2024-03-06T13:31:25;11.20;99.90
37310;DHT22;23195;47.744;7.358;2024-03-06T13:33:51;11.20;99.90
37310;DHT22;23195;47.744;7.358;2024-03-06T13:36:16;11.00;99.90
37310;DHT22;23195;47.744;7.358;2024-03-06T13:38:42;11.20;99.90
37310;DHT22;23195;47.744;7.358;2024-03-06T13:41:08;11.20;99.90
37310;DHT22;23195;47.744;7.358;2024-03-06T13:43:34;11.20;99.90
37310;DHT22;23195;47.744;7.358;2024-03-06T13:46:01;11.20;99.90
37310;DHT22;23195;47.744;7.358;2024-03-06T13:48:27;11.10;99.90
37310;DHT22;23195;47.744;7.358;2024-03-06T13:50:55;11.30;99.90
37310;DHT22;23195;47.744;7.358;2024-03-06T13:53:21;11.20;99.90
37310;DHT22;23195;47.744;7.358;2024-03-06T13:55:46;11.30;99.90
37310;DHT22;23195;47.744;7.358;2024-03-06T13:58:12;11.20;99.90
37310;DHT22;23195;47.744;7.358;2024-03-06T14:00:38;11.20;99.90
37310;DHT22;23195;47.744;7.358;2024-03-06T14:03:04;11.20;99.90
37310;DHT22;23195;47.744;7.358;2024-03-06T14:05:29;11.20;99.90
37310;DHT22;23195;47.744;7.358;2024-03-06T14:07:55;11.20;99.90
37310;DHT22;23195;47.744;7.358;2024-03-06T14:10:22;11.20;99.90
37310;DHT22;23195;47.744;7.358;2024-03-06T14:12:49;11.10;99.90
37310;DHT22;23195;47.744;7.358;2024-03-06T14:15:20;10.90;99.90
37310;DHT22;23195;47.744;7.358;2024-03-06T14:17:49;10.90;99.90
37310;DHT22;23195;47.744;7.358;2024-03-06T14:20:15;11.00;99.90
37310;DHT22;23195;47.744;7.358;2024-03-06T14:22:41;11.00;99.90
37310;DHT22;23195;47.744;7.358;2024-03-06T14:25:08;10.70;99.90
37310;DHT22;23195;47.744;7.358;2024-03-06T14:27:34;10.90;99.90
37310;DHT22;23195;47.744;7.358;2024-03-06T14:30:02;10.90;99.90
37310;DHT22;23195;47.744;7.358;2024-03-06T14:32:28;10.70;99.90
37310;DHT22;23195;47.744;7.358;2024-03-06T14:34:54;10.60;99.90
37310;DHT22;23195;47.744;7.358;2024-03-06T14:37:20;10.60;99.90
37310;DHT22;23195;47.744;7.358;2024-03-06T14:39:46;10.50;99.90
37310;DHT22;23195;47.744;7.358;2024-03-06T14:42:12;10.10;99.90
37310;DHT22;23195;47.744;7.358;2024-03-06T14:44:40;10.20;99.90
37310;DHT22;23195;47.744;7.358;2024-03-06T14:47:06;10.00;99.90
37310;DHT22;23195;47.744;7.358;2024-03-06T14:49:34;10.10;99.90
37310;DHT22;23195;47.744;7.358;2024-03-06T14:52:03;9.90;99.90
37310;DHT22;23195;47.744;7.358;2024-03-06T14:54:30;9.80;99.90
37310;DHT22;23195;47.744;7.358;2024-03-06T14:56:56;9.70;99.90
37310;DHT22;23195;47.744;7.358;2024-03-06T14:59:22;9.60;99.90
37310;DHT22;23195;47.744;7.358;2024-03-06T15:01:48;9.50;99.90
37310;DHT22;23195;47.744;7.358;2024-03-06T15:04:14;9.50;99.90
37310;DHT22;23195;47.744;7.358;2024-03-06T15:06:45;9.40;99.90
37310;DHT22;23195;47.744;7.358;2024-03-06T15:09:18;9.30;99.90
37310;DHT22;23195;47.744;7.358;2024-03-06T15:11:48;9.30;99.90
37310;DHT22;23195;47.744;7.358;2024-03-06T15:14:14;9.20;99.90
37310;DHT22;23195;47.744;7.358;2024-03-06T15:16:40;8.80;99.90
37310;DHT22;23195;47.744;7.358;2024-03-06T15:19:06;8.50;99.90
37310;DHT22;23195;47.744;7.358;2024-03-06T15:21:34;8.10;99.90
37310;DHT22;23195;47.744;7.358;2024-03-06T15:24:00;7.80;99.90
37310;DHT22;23195;47.744;7.358;2024-03-06T15:26:26;7.60;99.90
37310;DHT22;23195;47.744;7.358;2024-03-06T15:28:55;7.50;99.90
37310;DHT22;23195;47.744;7.358;2024-03-06T15:31:23;7.40;99.90
37310;DHT22;23195;47.744;7.358;2024-03-06T15:33:50;7.30;99.90
37310;DHT22;23195;47.744;7.358;2024-03-06T15:36:16;7.20;99.90
37310;DHT22;23195;47.744;7.358;2024-03-06T15:38:43;7.30;99.90
37310;DHT22;23195;47.744;7.358;2024-03-06T15:41:09;7.20;99.90
37310;DHT22;23195;47.744;7.358;2024-03-06T15:43:38;7.30;99.90
37310;DHT22;23195;47.744;7.358;2024-03-06T15:46:08;7.20;99.90
37310;DHT22;23195;47.744;7.358;2024-03-06T15:48:35;7.20;99.90
37310;DHT22;23195;47.744;7.358;2024-03-06T15:51:00;7.30;99.90
37310;DHT22;23195;47.744;7.358;2024-03-06T15:53:26;7.30;99.90
37310;DHT22;23195;47.744;7.358;2024-03-06T15:55:55;7.30;99.90
37310;DHT22;23195;47.744;7.358;2024-03-06T15:58:24;7.30;99.90
37310;DHT22;23195;47.744;7.358;2024-03-06T16:00:50;7.40;99.90
37310;DHT22;23195;47.744;7.358;2024-03-06T16:03:19;7.40;99.90
37310;DHT22;23195;47.744;7.358;2024-03-06T16:05:45;7.40;99.90
37310;DHT22;23195;47.744;7.358;2024-03-06T16:08:11;7.40;99.90
37310;DHT22;23195;47.744;7.358;2024-03-06T16:10:36;7.50;99.90
37310;DHT22;23195;47.744;7.358;2024-03-06T16:13:02;7.50;99.90
37310;DHT22;23195;47.744;7.358;2024-03-06T16:15:28;7.50;99.90
37310;DHT22;23195;47.744;7.358;2024-03-06T16:17:54;7.50;99.90
37310;DHT22;23195;47.744;7.358;2024-03-06T16:20:21;7.80;99.90
37310;DHT22;23195;47.744;7.358;2024-03-06T16:22:46;7.50;99.90
37310;DHT22;23195;47.744;7.358;2024-03-06T16:25:12;7.50;99.90
37310;DHT22;23195;47.744;7.358;2024-03-06T16:27:38;7.60;99.90
37310;DHT22;23195;47.744;7.358;2024-03-06T16:30:04;7.40;99.90
37310;DHT22;23195;47.744;7.358;2024-03-06T16:32:30;7.50;99.90
37310;DHT22;23195;47.744;7.358;2024-03-06T16:34:56;7.50;99.90
37310;DHT22;23195;47.744;7.358;2024-03-06T16:37:25;7.50;99.90
37310;DHT22;23195;47.744;7.358;2024-03-06T16:39:50;7.50;99.90
37310;DHT22;23195;47.744;7.358;2024-03-06T16:42:16;7.40;99.90
37310;DHT22;23195;47.744;7.358;2024-03-06T16:44:43;7.30;99.90
37310;DHT22;23195;47.744;7.358;2024-03-06T16:47:09;7.30;99.90
37310;DHT22;23195;47.744;7.358;2024-03-06T16:49:35;7.20;99.90
37310;DHT22;23195;47.744;7.358;2024-03-06T16:52:01;7.20;99.90
37310;DHT22;23195;47.744;7.358;2024-03-06T16:54:27;7.20;99.90
37310;DHT22;23195;47.744;7.358;2024-03-06T16:56:53;7.10;99.90
37310;DHT22;23195;47.744;7.358;2024-03-06T16:59:18;7.00;99.90
37310;DHT22;23195;47.744;7.358;2024-03-06T17:01:44;7.10;99.90
37310;DHT22;23195;47.744;7.358;2024-03-06T17:04:10;7.00;99.90
37310;DHT22;23195;47.744;7.358;2024-03-06T17:06:36;7.10;99.90
37310;DHT22;23195;47.744;7.358;2024-03-06T17:09:04;7.10;99.90
37310;DHT22;23195;47.744;7.358;2024-03-06T17:11:31;7.10;99.90
37310;DHT22;23195;47.744;7.358;2024-03-06T17:13:57;7.00;99.90
37310;DHT22;23195;47.744;7.358;2024-03-06T17:16:22;7.00;99.90
37310;DHT22;23195;47.744;7.358;2024-03-06T17:18:48;7.00;99.90
37310;DHT22;23195;47.744;7.358;2024-03-06T17:21:15;7.00;99.90
37310;DHT22;23195;47.744;7.358;2024-03-06T17:23:40;6.80;99.90
37310;DHT22;23195;47.744;7.358;2024-03-06T17:26:09;6.80;99.90
37310;DHT22;23195;47.744;7.358;2024-03-06T17:28:36;6.70;99.90
37310;DHT22;23195;47.744;7.358;2024-03-06T17:31:01;6.80;99.90
37310;DHT22;23195;47.744;7.358;2024-03-06T17:33:27;6.80;99.90
37310;DHT22;23195;47.744;7.358;2024-03-06T17:35:53;6.90;99.90
37310;DHT22;23195;47.744;7.358;2024-03-06T17:38:21;6.90;99.90
37310;DHT22;23195;47.744;7.358;2024-03-06T17:40:49;6.90;99.90
37310;DHT22;23195;47.744;7.358;2024-03-06T17:43:16;6.80;99.90
37310;DHT22;23195;47.744;7.358;2024-03-06T17:45:41;6.80;99.90
37310;DHT22;23195;47.744;7.358;2024-03-06T17:48:08;6.90;99.90
37310;DHT22;23195;47.744;7.358;2024-03-06T17:50:34;6.80;99.90
37310;DHT22;23195;47.744;7.358;2024-03-06T17:53:05;6.90;99.90
37310;DHT22;23195;47.744;7.358;2024-03-06T17:55:32;6.70;99.90
37310;DHT22;23195;47.744;7.358;2024-03-06T17:57:59;6.80;99.90
37310;DHT22;23195;47.744;7.358;2024-03-06T18:00:27;6.80;99.90
37310;DHT22;23195;47.744;7.358;2024-03-06T18:02:56;6.80;99.90
37310;DHT22;23195;47.744;7.358;2024-03-06T18:05:27;6.80;99.90
37310;DHT22;23195;47.744;7.358;2024-03-06T18:08:02;6.80;99.90
37310;DHT22;23195;47.744;7.358;2024-03-06T18:10:29;6.80;99.90
37310;DHT22;23195;47.744;7.358;2024-03-06T18:12:55;6.80;99.90
37310;DHT22;23195;47.744;7.358;2024-03-06T18:15:21;6.80;99.90
37310;DHT22;23195;47.744;7.358;2024-03-06T18:17:46;6.80;99.90
37310;DHT22;23195;47.744;7.358;2024-03-06T18:20:12;6.80;99.90
37310;DHT22;23195;47.744;7.358;2024-03-06T18:22:41;7.10;99.90
37310;DHT22;23195;47.744;7.358;2024-03-06T18:25:07;6.80;99.90
37310;DHT22;23195;47.744;7.358;2024-03-06T18:27:34;6.80;99.90
37310;DHT22;23195;47.744;7.358;2024-03-06T18:30:00;6.80;99.90
37310;DHT22;23195;47.744;7.358;2024-03-06T18:32:28;6.70;99.90
37310;DHT22;23195;47.744;7.358;2024-03-06T18:34:54;6.80;99.90
37310;DHT22;23195;47.744;7.358;2024-03-06T18:37:23;6.80;99.90
37310;DHT22;23195;47.744;7.358;2024-03-06T18:39:50;6.80;99.90
37310;DHT22;23195;47.744;7.358;2024-03-06T18:42:15;6.80;99.90
37310;DHT22;23195;47.744;7.358;2024-03-06T18:44:41;6.80;99.90
37310;DHT22;23195;47.744;7.358;2024-03-06T18:47:08;6.90;99.90
37310;DHT22;23195;47.744;7.358;2024-03-06T18:49:33;6.80;99.90
37310;DHT22;23195;47.744;7.358;2024-03-06T18:51:59;6.80;99.90
37310;DHT22;23195;47.744;7.358;2024-03-06T18:54:26;6.80;99.90
37310;DHT22;23195;47.744;7.358;2024-03-06T18:56:52;6.80;99.90
37310;DHT22;23195;47.744;7.358;2024-03-06T18:59:19;6.80;99.90
37310;DHT22;23195;47.744;7.358;2024-03-06T19:01:45;6.70;99.90
37310;DHT22;23195;47.744;7.358;2024-03-06T19:04:24;6.60;99.90
37310;DHT22;23195;47.744;7.358;2024-03-06T19:06:51;6.60;99.90
37310;DHT22;23195;47.744;7.358;2024-03-06T19:09:16;6.60;99.90
37310;DHT22;23195;47.744;7.358;2024-03-06T19:11:49;6.60;99.90
37310;DHT22;23195;47.744;7.358;2024-03-06T19:14:18;6.60;99.90
37310;DHT22;23195;47.744;7.358;2024-03-06T19:16:45;6.60;99.90
37310;DHT22;23195;47.744;7.358;2024-03-06T19:19:13;6.60;99.90
37310;DHT22;23195;47.744;7.358;2024-03-06T19:21:41;6.60;99.90
37310;DHT22;23195;47.744;7.358;2024-03-06T19:24:07;6.50;99.90
37310;DHT22;23195;47.744;7.358;2024-03-06T19:26:33;6.50;99.90
37310;DHT22;23195;47.744;7.358;2024-03-06T19:28:59;6.50;99.90
37310;DHT22;23195;47.744;7.358;2024-03-06T19:31:25;6.40;99.90
37310;DHT22;23195;47.744;7.358;2024-03-06T19:33:50;6.40;99.90
37310;DHT22;23195;47.744;7.358;2024-03-06T19:36:16;6.40;99.90
37310;DHT22;23195;47.744;7.358;2024-03-06T19:38:42;6.40;99.90
37310;DHT22;23195;47.744;7.358;2024-03-06T19:41:08;6.40;99.90
37310;DHT22;23195;47.744;7.358;2024-03-06T19:43:35;6.40;99.90
37310;DHT22;23195;47.744;7.358;2024-03-06T19:46:05;6.40;99.90
37310;DHT22;23195;47.744;7.358;2024-03-06T19:48:31;6.40;99.90
37310;DHT22;23195;47.744;7.358;2024-03-06T19:50:58;6.50;99.90
37310;DHT22;23195;47.744;7.358;2024-03-06T19:53:25;6.50;99.90
37310;DHT22;23195;47.744;7.358;2024-03-06T19:55:51;6.30;99.90
37310;DHT22;23195;47.744;7.358;2024-03-06T19:58:16;6.40;99.90
37310;DHT22;23195;47.744;7.358;2024-03-06T20:00:44;6.40;99.90
37310;DHT22;23195;47.744;7.358;2024-03-06T20:03:10;6.40;99.90
37310;DHT22;23195;47.744;7.358;2024-03-06T20:05:36;5.50;99.90
37310;DHT22;23195;47.744;7.358;2024-03-06T20:08:01;6.30;99.90
37310;DHT22;23195;47.744;7.358;2024-03-06T20:10:29;6.40;99.90
37310;DHT22;23195;47.744;7.358;2024-03-06T20:12:58;6.30;99.90
37310;DHT22;23195;47.744;7.358;2024-03-06T20:15:28;6.30;99.90
37310;DHT22;23195;47.744;7.358;2024-03-06T20:17:56;6.40;99.90
37310;DHT22;23195;47.744;7.358;2024-03-06T20:20:24;6.30;99.90
37310;DHT22;23195;47.744;7.358;2024-03-06T20:22:50;6.40;99.90
37310;DHT22;23195;47.744;7.358;2024-03-06T20:25:24;6.30;99.90
37310;DHT22;23195;47.744;7.358;2024-03-06T20:27:50;6.30;99.90
37310;DHT22;23195;47.744;7.358;2024-03-06T20:30:16;6.30;99.90
37310;DHT22;23195;47.744;7.358;2024-03-06T20:32:42;6.30;99.90
37310;DHT22;23195;47.744;7.358;2024-03-06T20:35:07;6.30;99.90
37310;DHT22;23195;47.744;7.358;2024-03-06T20:37:34;6.40;99.90
37310;DHT22;23195;47.744;7.358;2024-03-06T20:40:00;6.40;99.90
37310;DHT22;23195;47.744;7.358;2024-03-06T20:42:25;6.40;99.90
37310;DHT22;23195;47.744;7.358;2024-03-06T20:44:51;6.40;99.90
37310;DHT22;23195;47.744;7.358;2024-03-06T20:47:17;6.30;99.90
37310;DHT22;23195;47.744;7.358;2024-03-06T20:49:44;6.30;99.90
37310;DHT22;23195;47.744;7.358;2024-03-06T20:52:10;6.30;99.90
37310;DHT22;23195;47.744;7.358;2024-03-06T20:54:40;6.40;99.90
37310;DHT22;23195;47.744;7.358;2024-03-06T20:57:06;6.40;99.90
37310;DHT22;23195;47.744;7.358;2024-03-06T20:59:32;6.40;99.90
37310;DHT22;23195;47.744;7.358;2024-03-06T21:02:00;6.40;99.90
37310;DHT22;23195;47.744;7.358;2024-03-06T21:04:26;6.50;99.90
37310;DHT22;23195;47.744;7.358;2024-03-06T21:06:52;6.40;99.90
37310;DHT22;23195;47.744;7.358;2024-03-06T21:09:18;6.40;99.90
37310;DHT22;23195;47.744;7.358;2024-03-06T21:11:47;6.50;99.90
37310;DHT22;23195;47.744;7.358;2024-03-06T21:14:29;6.40;99.90
37310;DHT22;23195;47.744;7.358;2024-03-06T21:17:04;6.40;99.90
37310;DHT22;23195;47.744;7.358;2024-03-06T21:19:47;6.50;99.90
37310;DHT22;23195;47.744;7.358;2024-03-06T21:22:16;6.00;99.90
37310;DHT22;23195;47.744;7.358;2024-03-06T21:25:02;6.50;99.90
37310;DHT22;23195;47.744;7.358;2024-03-06T21:27:31;6.50;99.90
37310;DHT22;23195;47.744;7.358;2024-03-06T21:29:59;6.40;99.90
37310;DHT22;23195;47.744;7.358;2024-03-06T21:32:39;6.40;99.90
37310;DHT22;23195;47.744;7.358;2024-03-06T21:35:11;6.40;99.90
37310;DHT22;23195;47.744;7.358;2024-03-06T21:37:41;6.40;99.90
37310;DHT22;23195;47.744;7.358;2024-03-06T21:40:10;6.40;99.90
37310;DHT22;23195;47.744;7.358;2024-03-06T21:42:42;6.40;99.90
37310;DHT22;23195;47.744;7.358;2024-03-06T21:45:14;6.40;99.90
37310;DHT22;23195;47.744;7.358;2024-03-06T21:47:40;6.40;99.90
37310;DHT22;23195;47.744;7.358;2024-03-06T21:50:09;6.50;99.90
37310;DHT22;23195;47.744;7.358;2024-03-06T21:52:35;6.50;99.90
37310;DHT22;23195;47.744;7.358;2024-03-06T21:55:25;6.40;99.90
37310;DHT22;23195;47.744;7.358;2024-03-06T21:58:01;6.40;99.90
37310;DHT22;23195;47.744;7.358;2024-03-06T22:00:30;6.40;99.90
37310;DHT22;23195;47.744;7.358;2024-03-06T22:03:06;6.40;99.90
37310;DHT22;23195;47.744;7.358;2024-03-06T22:05:45;6.40;99.90
37310;DHT22;23195;47.744;7.358;2024-03-06T22:08:14;6.20;99.90
37310;DHT22;23195;47.744;7.358;2024-03-06T22:10:47;6.50;99.90
37310;DHT22;23195;47.744;7.358;2024-03-06T22:13:13;6.40;99.90
37310;DHT22;23195;47.744;7.358;2024-03-06T22:15:39;6.40;99.90
37310;DHT22;23195;47.744;7.358;2024-03-06T22:18:07;6.40;99.90
37310;DHT22;23195;47.744;7.358;2024-03-06T22:20:33;6.40;99.90
37310;DHT22;23195;47.744;7.358;2024-03-06T22:23:06;6.40;99.90
37310;DHT22;23195;47.744;7.358;2024-03-06T22:25:32;6.40;99.90
37310;DHT22;23195;47.744;7.358;2024-03-06T22:27:58;6.40;99.90
37310;DHT22;23195;47.744;7.358;2024-03-06T22:30:29;6.40;99.90
37310;DHT22;23195;47.744;7.358;2024-03-06T22:32:54;6.40;99.90
37310;DHT22;23195;47.744;7.358;2024-03-06T22:35:21;6.50;99.90
37310;DHT22;23195;47.744;7.358;2024-03-06T22:37:46;6.40;99.90
37310;DHT22;23195;47.744;7.358;2024-03-06T22:40:12;6.50;99.90
37310;DHT22;23195;47.744;7.358;2024-03-06T22:42:39;6.40;99.90
37310;DHT22;23195;47.744;7.358;2024-03-06T22:45:06;6.40;99.90
37310;DHT22;23195;47.744;7.358;2024-03-06T22:47:32;6.40;99.90
37310;DHT22;23195;47.744;7.358;2024-03-06T22:50:00;6.50;99.90
37310;DHT22;23195;47.744;7.358;2024-03-06T22:52:26;6.50;99.90
37310;DHT22;23195;47.744;7.358;2024-03-06T22:54:52;6.60;99.90
37310;DHT22;23195;47.744;7.358;2024-03-06T22:57:19;6.70;99.90
37310;DHT22;23195;47.744;7.358;2024-03-06T22:59:46;6.60;99.90
37310;DHT22;23195;47.744;7.358;2024-03-06T23:02:12;6.60;99.90
37310;DHT22;23195;47.744;7.358;2024-03-06T23:04:38;6.50;99.90
37310;DHT22;23195;47.744;7.358;2024-03-06T23:07:04;6.60;99.90
37310;DHT22;23195;47.744;7.358;2024-03-06T23:09:31;6.50;99.90